Time;durP1;ratioP1;P1;durP2;ratioP2;P2;SDS_P1;SDS_P2;PMS_P1;PMS_P2;Temp;Humidity;BMP_temperature;BMP_pressure;BME280_temperature;BME280_humidity;BME280_pressure;Samples;Min_cycle;Max_cycle;Signal;HPM_P1;HPM_P2
2023/01/17 00:02:34;;;;;;;;;;;;;;;5.97;62.13;97506.97;5055842;28;20016;-83
2023/01/17 00:12:27;;;;;;;;;;;;;;;6.01;61.98;97542.91;5055816;28;20004;-83
2023/01/17 00:15:31;;;;;;;;;;;;;;;5.79;62.61;97517.84;5042165;28;19923;-82
2023/01/17 00:18:35;;;;;;;;;;;;;;;5.99;62.46;97531.81;5055406;28;20293;-81
2023/01/17 01:35:03;;;;;;;;;;;;;;;5.52;62.81;97662.59;5053985;28;19920;-82
2023/01/17 01:38:08;;;;;;;;;;;;;;;5.50;62.93;97661.91;5053893;28;19942;-82
2023/01/17 01:41:11;;;;;;;;;;;;;;;5.47;62.87;97675.09;5053929;28;19966;-82
2023/01/17 01:44:33;;;;;;;;;;;;;;;5.54;62.46;97668.50;5041759;28;20049;-82
2023/01/17 01:47:39;;;;;;;;;;;;;;;5.66;62.38;97675.31;5054032;28;19920;-82
2023/01/17 01:50:42;;;;;;;;;;;;;;;5.80;62.82;97693.19;5053753;28;20004;-82
2023/01/17 01:53:51;;;;;;;;;;;;;;;5.65;62.00;97698.75;5041079;28;20075;-82
2023/01/17 01:56:55;;;;;;;;;;;;;;;5.71;61.13;97701.72;5053604;28;19965;-82
2023/01/17 02:00:01;;;;;;;;;;;;;;;5.69;61.27;97701.00;5053629;28;19919;-81
2023/01/17 02:03:41;;;;;;;;;;;;;;;5.64;61.15;97700.53;5053516;28;19919;-82
2023/01/17 02:06:49;;;;;;;;;;;;;;;5.60;61.37;97693.94;5041053;28;19959;-82
2023/01/17 02:09:53;;;;;;;;;;;;;;;5.79;60.62;97711.47;5053482;28;19943;-81
2023/01/17 02:12:56;;;;;;;;;;;;;;;5.90;60.81;97710.63;5053313;28;19943;-81
2023/01/17 02:16:06;;;;;;;;;;;;;;;5.83;60.92;97718.91;5041314;28;19966;-83
2023/01/17 02:19:32;;;;;;;;;;;;;;;5.74;60.93;97717.03;5053415;28;19939;-84
2023/01/17 02:22:54;;;;;;;;;;;;;;;5.71;61.05;97726.78;5053157;28;19970;-83
2023/01/17 02:25:58;;;;;;;;;;;;;;;5.80;60.72;97726.91;5053247;28;19919;-84
2023/01/17 02:29:22;;;;;;;;;;;;;;;5.93;59.92;97737.19;5053145;28;19924;-83
2023/01/17 02:32:26;;;;;;;;;;;;;;;5.68;60.31;97727.88;5053140;28;19959;-83
2023/01/17 02:35:38;;;;;;;;;;;;;;;5.77;59.40;97737.50;5053283;28;19923;-82
2023/01/17 02:38:57;;;;;;;;;;;;;;;5.76;58.89;97738.47;5052692;28;20269;-81
2023/01/17 02:42:03;;;;;;;;;;;;;;;5.91;58.84;97740.84;5053056;28;19958;-81
2023/01/17 02:45:14;;;;;;;;;;;;;;;5.87;58.92;97731.63;5053294;28;19919;-82
2023/01/17 02:48:19;;;;;;;;;;;;;;;5.82;59.05;97739.78;5053152;28;19919;-82
2023/01/17 02:51:45;;;;;;;;;;;;;;;5.92;59.23;97740.69;5053284;28;19920;-82
2023/01/17 02:54:53;;;;;;;;;;;;;;;5.48;58.47;97731.16;5052698;28;19978;-82
2023/01/17 02:58:00;;;;;;;;;;;;;;;5.52;57.62;97753.28;5052957;28;19923;-82
2023/01/17 03:01:16;;;;;;;;;;;;;;;5.42;58.36;97747.97;5041304;28;20439;-81
2023/01/17 03:04:24;;;;;;;;;;;;;;;5.35;57.50;97755.41;5053177;28;19999;-81
2023/01/17 03:07:29;;;;;;;;;;;;;;;5.15;58.68;97750.91;5053058;28;19934;-81
2023/01/17 03:10:32;;;;;;;;;;;;;;;5.49;58.13;97754.38;5052836;28;19919;-81
2023/01/17 03:13:36;;;;;;;;;;;;;;;5.58;57.57;97747.66;5052694;28;19924;-81
2023/01/17 03:16:39;;;;;;;;;;;;;;;5.61;57.70;97750.00;5052779;28;19967;-81
2023/01/17 03:19:42;;;;;;;;;;;;;;;5.71;57.23;97745.78;5052693;28;19920;-81
2023/01/17 03:22:47;;;;;;;;;;;;;;;5.74;57.34;97748.16;5040403;28;19966;-81
2023/01/17 03:25:50;;;;;;;;;;;;;;;5.82;57.85;97750.97;5052645;28;20427;-81
2023/01/17 03:28:56;;;;;;;;;;;;;;;5.74;56.65;97763.72;5052637;28;19920;-81
2023/01/17 03:32:00;;;;;;;;;;;;;;;5.92;56.30;97758.03;5052602;28;19966;-81
2023/01/17 03:35:04;;;;;;;;;;;;;;;5.85;55.70;97777.63;5052478;28;19967;-81
2023/01/17 03:38:11;;;;;;;;;;;;;;;5.95;57.30;97773.41;5040235;28;19920;-81
2023/01/17 03:41:13;;;;;;;;;;;;;;;5.93;57.44;97777.84;5040184;28;19967;-81
2023/01/17 03:44:16;;;;;;;;;;;;;;;5.77;56.58;97783.38;5052529;28;19919;-81
2023/01/17 03:47:19;;;;;;;;;;;;;;;5.85;56.94;97788.81;5052427;28;19920;-81
2023/01/17 03:50:23;;;;;;;;;;;;;;;5.86;56.33;97797.41;5056384;28;19942;-81
2023/01/17 03:53:27;;;;;;;;;;;;;;;5.92;56.51;97807.31;5043601;28;19939;-81
2023/01/17 03:56:31;;;;;;;;;;;;;;;5.94;56.12;97808.88;5016562;28;19971;-81
2023/01/17 03:59:34;;;;;;;;;;;;;;;5.90;57.90;97804.00;5016161;28;20393;-81
2023/01/17 04:02:37;;;;;;;;;;;;;;;5.84;58.45;97810.50;5016103;28;19919;-81
2023/01/17 04:05:40;;;;;;;;;;;;;;;5.89;57.41;97798.00;5016157;28;20021;-81
2023/01/17 04:08:43;;;;;;;;;;;;;;;5.93;56.78;97804.63;5015967;28;20047;-81
2023/01/17 04:11:49;;;;;;;;;;;;;;;5.91;56.80;97810.84;5016082;28;20347;-81
2023/01/17 04:14:54;;;;;;;;;;;;;;;6.00;56.77;97805.00;5015895;28;19924;-81
2023/01/17 04:17:57;;;;;;;;;;;;;;;5.93;56.86;97808.97;5015839;28;19920;-82
2023/01/17 04:21:01;;;;;;;;;;;;;;;5.91;57.26;97805.66;5015847;28;19940;-82
2023/01/17 04:24:08;;;;;;;;;;;;;;;5.77;57.45;97804.94;5015997;28;20282;-82
2023/01/17 04:27:13;;;;;;;;;;;;;;;5.73;57.05;97806.13;5015897;28;19960;-81
2023/01/17 04:30:16;;;;;;;;;;;;;;;5.90;56.80;97809.19;5015649;28;20012;-81
2023/01/17 04:33:19;;;;;;;;;;;;;;;5.58;57.02;97808.13;5015447;28;19943;-82
2023/01/17 04:36:25;;;;;;;;;;;;;;;5.78;56.37;97811.78;5015446;28;19920;-81
2023/01/17 04:39:29;;;;;;;;;;;;;;;5.50;57.33;97813.03;5015348;28;20429;-81
2023/01/17 04:42:32;;;;;;;;;;;;;;;5.77;57.80;97819.66;5014541;28;20283;-83
2023/01/17 04:45:37;;;;;;;;;;;;;;;5.88;57.22;97816.28;5015133;28;19920;-82
2023/01/17 04:48:40;;;;;;;;;;;;;;;5.70;58.40;97824.50;5014406;28;19925;-82
2023/01/17 04:51:46;;;;;;;;;;;;;;;5.76;58.49;97826.63;5015302;28;19920;-82
2023/01/17 04:54:50;;;;;;;;;;;;;;;5.50;60.58;97833.78;5036398;28;20440;-82
2023/01/17 04:58:14;;;;;;;;;;;;;;;5.56;60.69;97837.69;5055074;28;20019;-81
2023/01/17 05:01:17;;;;;;;;;;;;;;;5.54;58.71;97842.97;5054160;28;19982;-82
2023/01/17 05:04:20;;;;;;;;;;;;;;;5.72;59.29;97838.19;5054664;28;19919;-82
2023/01/17 05:07:23;;;;;;;;;;;;;;;5.52;59.81;97841.41;5055155;28;19923;-84
2023/01/17 05:10:26;;;;;;;;;;;;;;;5.38;61.97;97839.84;5054782;28;19983;-83
2023/01/17 05:13:31;;;;;;;;;;;;;;;5.51;61.43;97843.19;5054425;28;19928;-82
2023/01/17 05:20:14;;;;;;;;;;;;;;;5.31;61.10;97855.03;5054642;28;20002;-88
2023/01/17 05:23:24;;;;;;;;;;;;;;;5.27;61.48;97858.78;5054224;28;19982;-87
2023/01/17 05:26:29;;;;;;;;;;;;;;;5.27;61.46;97858.78;5041811;28;19986;-84
2023/01/17 05:30:00;;;;;;;;;;;;;;;5.06;62.22;97855.16;5054450;28;19919;-80
2023/01/17 05:33:05;;;;;;;;;;;;;;;5.06;62.09;97858.56;5053432;28;20370;-78
2023/01/17 05:36:11;;;;;;;;;;;;;;;5.05;62.10;97858.69;5054228;28;20328;-79
2023/01/17 05:39:14;;;;;;;;;;;;;;;5.04;62.02;97859.63;5053874;28;19923;-82
2023/01/17 05:42:20;;;;;;;;;;;;;;;4.90;62.65;97853.69;5051851;28;19920;-78
2023/01/17 05:45:25;;;;;;;;;;;;;;;5.02;62.37;97849.38;5050090;28;19970;-77
2023/01/17 05:48:28;;;;;;;;;;;;;;;5.07;62.07;97847.31;5050861;28;19919;-77
2023/01/17 05:51:31;;;;;;;;;;;;;;;5.04;61.91;97846.66;5051582;28;19918;-77
2023/01/17 05:54:35;;;;;;;;;;;;;;;5.09;61.61;97850.59;5050480;28;19923;-78
2023/01/17 05:57:38;;;;;;;;;;;;;;;5.08;61.37;97845.53;5051647;28;19919;-76
2023/01/17 06:00:41;;;;;;;;;;;;;;;5.04;61.60;97855.28;5051545;28;19938;-78
2023/01/17 06:03:45;;;;;;;;;;;;;;;5.00;61.95;97860.78;5052175;28;20403;-78
2023/01/17 06:06:49;;;;;;;;;;;;;;;4.97;61.72;97855.81;5052246;28;19919;-78
2023/01/17 06:09:52;;;;;;;;;;;;;;;4.97;61.63;97861.00;5053125;28;19919;-79
2023/01/17 06:13:07;;;;;;;;;;;;;;;4.95;61.51;97860.31;5052771;28;19919;-75
2023/01/17 06:16:11;;;;;;;;;;;;;;;4.81;62.20;97871.63;5041660;28;20408;-78
2023/01/17 06:19:15;;;;;;;;;;;;;;;4.79;62.10;97866.56;5052208;28;19923;-79
2023/01/17 06:22:18;;;;;;;;;;;;;;;4.63;62.07;97873.78;5051420;28;19919;-77
2023/01/17 06:25:21;;;;;;;;;;;;;;;4.58;62.31;97881.03;5053471;28;20411;-77
2023/01/17 06:28:24;;;;;;;;;;;;;;;4.53;63.21;97883.09;5053023;28;19920;-76
2023/01/17 06:31:28;;;;;;;;;;;;;;;4.23;63.89;97888.63;5052785;28;19982;-76
2023/01/17 06:34:31;;;;;;;;;;;;;;;4.09;64.70;97889.59;5052413;28;20025;-76
2023/01/17 06:37:34;;;;;;;;;;;;;;;4.48;62.97;97896.38;5052549;28;20389;-75
2023/01/17 06:40:36;;;;;;;;;;;;;;;4.20;63.85;97898.25;5053027;28;19920;-76
2023/01/17 06:43:39;;;;;;;;;;;;;;;4.29;63.39;97896.81;5052627;28;19919;-76
2023/01/17 06:46:43;;;;;;;;;;;;;;;4.19;63.36;97900.94;5052959;28;19951;-76
2023/01/17 06:49:49;;;;;;;;;;;;;;;4.53;62.06;97903.78;5053019;28;19959;-75
2023/01/17 06:53:00;;;;;;;;;;;;;;;4.47;61.68;97906.81;5052756;28;19919;-75
2023/01/17 06:56:03;;;;;;;;;;;;;;;4.52;61.45;97917.66;5052896;28;19927;-76
2023/01/17 06:59:06;;;;;;;;;;;;;;;4.59;61.24;97924.06;5052887;28;20336;-75
2023/01/17 07:02:10;;;;;;;;;;;;;;;4.47;61.38;97930.09;5052907;28;19919;-75
2023/01/17 07:05:15;;;;;;;;;;;;;;;4.51;61.31;97926.38;5052828;28;20344;-75
2023/01/17 07:08:18;;;;;;;;;;;;;;;4.56;62.56;97930.31;5052892;28;19974;-76
2023/01/17 07:11:22;;;;;;;;;;;;;;;4.31;63.17;97928.56;5052797;28;19936;-76
2023/01/17 07:14:29;;;;;;;;;;;;;;;4.40;61.71;97933.13;5052724;28;20008;-77
2023/01/17 07:17:33;;;;;;;;;;;;;;;4.25;61.44;97934.16;5051971;28;20064;-77
2023/01/17 07:20:37;;;;;;;;;;;;;;;4.39;61.35;97944.38;5039042;28;19920;-77
2023/01/17 07:23:40;;;;;;;;;;;;;;;4.45;61.37;97937.16;5052099;28;19956;-78
2023/01/17 07:26:48;;;;;;;;;;;;;;;4.44;61.26;97941.50;5054759;28;19919;-77
2023/01/17 07:29:52;;;;;;;;;;;;;;;4.38;61.41;97947.91;5054758;28;19990;-77
2023/01/17 07:32:55;;;;;;;;;;;;;;;4.26;62.14;97950.50;5054525;28;20236;-77
2023/01/17 07:36:03;;;;;;;;;;;;;;;4.31;62.76;97938.09;5056362;28;20047;-79
2023/01/17 07:39:10;;;;;;;;;;;;;;;4.22;62.36;97942.13;5056317;28;19919;-75
2023/01/17 07:42:13;;;;;;;;;;;;;;;4.33;61.77;97933.63;5056470;28;19967;-79
2023/01/17 07:45:20;;;;;;;;;;;;;;;4.10;62.95;97924.84;5056109;28;20062;-72
2023/01/17 07:48:23;;;;;;;;;;;;;;;3.80;64.73;97927.69;5056117;28;19923;-72
2023/01/17 07:51:27;;;;;;;;;;;;;;;4.25;64.49;97921.22;5055979;28;20282;-72
2023/01/17 07:54:30;;;;;;;;;;;;;;;4.33;62.32;97918.09;5055737;28;19970;-76
2023/01/17 07:57:33;;;;;;;;;;;;;;;4.37;61.54;97923.00;5055064;28;19927;-76
2023/01/17 08:00:37;;;;;;;;;;;;;;;4.29;61.98;97917.50;5055178;28;19967;-77
2023/01/17 08:03:40;;;;;;;;;;;;;;;4.26;62.40;97915.13;5043808;28;20381;-77
2023/01/17 08:06:46;;;;;;;;;;;;;;;4.22;63.30;97916.25;5055721;28;19966;-76
2023/01/17 08:10:16;;;;;;;;;;;;;;;4.38;62.54;97911.69;5043612;28;19982;-75
2023/01/17 08:13:21;;;;;;;;;;;;;;;4.00;63.67;97911.72;5055525;28;19924;-79
2023/01/17 08:16:25;;;;;;;;;;;;;;;3.66;65.58;97913.13;5054195;28;19966;-78
2023/01/17 08:19:29;;;;;;;;;;;;;;;3.90;65.61;97911.50;5055573;28;19919;-76
2023/01/17 08:22:33;;;;;;;;;;;;;;;3.85;65.19;97912.72;5055728;28;19920;-72
2023/01/17 08:25:36;;;;;;;;;;;;;;;3.71;65.76;97903.31;5055340;28;19920;-78
2023/01/17 08:28:39;;;;;;;;;;;;;;;4.03;64.92;97900.34;5041751;28;19919;-78
2023/01/17 08:31:42;;;;;;;;;;;;;;;4.05;64.99;97899.31;5055325;28;19940;-77
2023/01/17 08:34:45;;;;;;;;;;;;;;;4.26;64.20;97891.84;5041958;28;20008;-82
2023/01/17 08:37:52;;;;;;;;;;;;;;;4.00;65.27;97895.38;5055070;28;19919;-76
2023/01/17 08:40:58;;;;;;;;;;;;;;;4.09;65.05;97897.34;5055095;28;20385;-78
2023/01/17 08:44:01;;;;;;;;;;;;;;;4.29;64.16;97896.81;5043082;28;19919;-77
2023/01/17 08:50:05;;;;;;;;;;;;;;;3.73;66.29;97910.03;5006634;22;19921;-70
2023/01/17 08:53:09;;;;;;;;;;;;;;;4.09;65.19;97905.94;4969918;28;20008;-70
2023/01/17 08:56:13;;;;;;;;;;;;;;;4.16;64.61;97903.75;4985062;28;19979;-70
2023/01/17 08:59:16;;;;;;;;;;;;;;;3.99;65.04;97904.91;4988021;28;19924;-70
2023/01/17 09:02:20;;;;;;;;;;;;;;;4.00;65.77;97910.88;4987971;28;19967;-72
2023/01/17 09:05:23;;;;;;;;;;;;;;;3.87;65.88;97908.28;4987293;28;19925;-71
2023/01/17 09:08:27;;;;;;;;;;;;;;;3.96;66.27;97903.34;4987804;28;20355;-71
2023/01/17 09:11:33;;;;;;;;;;;;;;;4.01;65.31;97894.44;4994483;28;19967;-72
2023/01/17 09:14:38;;;;;;;;;;;;;;;3.87;66.11;97896.19;4969790;28;19969;-72
2023/01/17 09:17:41;;;;;;;;;;;;;;;4.02;65.47;97894.34;4957977;28;20350;-71
2023/01/17 09:20:45;;;;;;;;;;;;;;;4.10;65.01;97891.22;4989476;28;19916;-71
2023/01/17 09:23:48;;;;;;;;;;;;;;;4.01;65.80;97887.50;4990001;28;19925;-71
2023/01/17 09:26:51;;;;;;;;;;;;;;;3.96;65.85;97885.25;4983896;28;19921;-70
2023/01/17 09:29:53;;;;;;;;;;;;;;;4.06;66.04;97889.78;4969575;28;19936;-71
2023/01/17 09:33:24;;;;;;;;;;;;;;;3.92;66.93;97901.03;4970232;28;19928;-71
2023/01/17 09:36:27;;;;;;;;;;;;;;;4.11;66.72;97904.03;4984736;28;19921;-72
2023/01/17 09:43:38;;;;;;;;;;;;;;;3.97;66.95;97902.41;4986950;28;19920;-71
2023/01/17 09:46:43;;;;;;;;;;;;;;;4.20;66.86;97907.78;4980157;28;19976;-71
2023/01/17 09:49:46;;;;;;;;;;;;;;;3.96;67.36;97900.75;4986771;28;19971;-73
2023/01/17 09:52:51;;;;;;;;;;;;;;;4.09;66.49;97907.69;4988138;28;19956;-71
2023/01/17 09:55:54;;;;;;;;;;;;;;;4.17;66.64;97905.41;4985514;28;19971;-71
2023/01/17 09:59:00;;;;;;;;;;;;;;;4.12;66.13;97904.91;4987283;28;19971;-71
2023/01/17 10:02:10;;;;;;;;;;;;;;;4.24;66.64;97898.88;4969261;28;20343;-71
2023/01/17 10:05:16;;;;;;;;;;;;;;;4.37;66.09;97902.28;4985930;28;20006;-71
2023/01/17 10:08:25;;;;;;;;;;;;;;;4.41;66.24;97903.72;4979484;28;19924;-71
2023/01/17 10:11:35;;;;;;;;;;;;;;;4.45;66.34;97912.09;5007565;28;20397;-71
2023/01/17 10:14:55;;;;;;;;;;;;;;;4.30;67.54;97913.16;4968937;28;19945;-71
2023/01/17 10:18:05;;;;;;;;;;;;;;;4.32;67.94;97912.13;4968642;28;19924;-71
2023/01/17 10:21:27;;;;;;;;;;;;;;;4.53;67.52;97898.63;4979221;28;20402;-71
2023/01/17 10:24:30;;;;;;;;;;;;;;;4.30;68.47;97900.22;5003843;28;19971;-73
2023/01/17 10:27:36;;;;;;;;;;;;;;;4.57;68.01;97900.06;5007621;28;19920;-73
2023/01/17 10:30:47;;;;;;;;;;;;;;;4.41;68.33;97895.97;5008061;28;20022;-72
2023/01/17 10:33:52;;;;;;;;;;;;;;;4.34;67.84;97893.88;5008009;28;19924;-72
2023/01/17 10:37:01;;;;;;;;;;;;;;;4.66;67.16;97884.72;4997981;28;19924;-73
2023/01/17 10:40:25;;;;;;;;;;;;;;;4.45;66.69;97890.56;5008116;28;19963;-72
2023/01/17 10:43:43;;;;;;;;;;;;;;;4.55;66.77;97886.41;5005839;28;19920;-71
2023/01/17 10:46:50;;;;;;;;;;;;;;;4.33;67.25;97893.06;4986597;28;20219;-71
2023/01/17 10:50:00;;;;;;;;;;;;;;;4.51;66.73;97892.75;4987271;28;19943;-72
2023/01/17 10:53:08;;;;;;;;;;;;;;;4.55;67.47;97891.59;4985951;28;19940;-72
2023/01/17 10:56:13;;;;;;;;;;;;;;;4.54;66.60;97889.94;4968457;28;19975;-71
2023/01/17 10:59:17;;;;;;;;;;;;;;;4.35;66.52;97892.97;4970342;28;20045;-72
2023/01/17 11:02:24;;;;;;;;;;;;;;;4.72;65.39;97892.97;4984880;28;19928;-72
2023/01/17 11:05:29;;;;;;;;;;;;;;;4.79;64.85;97892.47;4995740;28;19964;-72
2023/01/17 11:08:49;;;;;;;;;;;;;;;4.56;65.64;97888.06;5005195;28;19920;-72
2023/01/17 11:11:52;;;;;;;;;;;;;;;4.66;64.97;97891.69;5010963;28;19924;-72
2023/01/17 11:14:57;;;;;;;;;;;;;;;4.83;63.89;97882.72;5010642;28;19993;-74
2023/01/17 11:18:01;;;;;;;;;;;;;;;4.89;62.24;97879.69;5010643;28;19920;-72
2023/01/17 11:21:22;;;;;;;;;;;;;;;4.94;63.61;97879.34;4991276;28;19928;-72
2023/01/17 11:24:28;;;;;;;;;;;;;;;4.73;64.64;97874.78;4990961;28;20294;-72
2023/01/17 11:27:34;;;;;;;;;;;;;;;4.78;64.49;97877.03;4990273;28;19921;-72
2023/01/17 11:30:49;;;;;;;;;;;;;;;4.70;66.04;97875.00;4991693;28;19969;-72
2023/01/17 11:34:11;;;;;;;;;;;;;;;4.84;65.12;97877.41;4991305;28;19941;-72
2023/01/17 11:37:18;;;;;;;;;;;;;;;4.98;64.67;97867.81;4991765;28;20029;-71
2023/01/17 11:40:34;;;;;;;;;;;;;;;4.99;65.10;97869.50;4991426;28;19943;-71
2023/01/17 11:43:48;;;;;;;;;;;;;;;5.02;63.50;97871.88;4991903;28;19959;-71
2023/01/17 11:47:10;;;;;;;;;;;;;;;5.18;59.95;97864.63;4991953;28;19967;-71
2023/01/17 11:50:24;;;;;;;;;;;;;;;5.23;61.36;97862.56;5004955;28;19925;-72
2023/01/17 11:53:32;;;;;;;;;;;;;;;5.28;59.99;97857.03;5011005;28;20425;-71
2023/01/17 11:56:36;;;;;;;;;;;;;;;5.33;60.88;97862.72;5010767;28;20409;-71
2023/01/17 11:59:42;;;;;;;;;;;;;;;5.19;61.65;97850.75;5009773;28;19950;-71
2023/01/17 12:03:04;;;;;;;;;;;;;;;5.18;61.20;97845.69;5010043;28;19920;-71
2023/01/17 12:06:16;;;;;;;;;;;;;;;4.90;62.25;97838.13;4991412;28;19929;-71
2023/01/17 12:09:40;;;;;;;;;;;;;;;4.83;62.28;97839.53;4991740;28;19920;-71
2023/01/17 12:16:30;;;;;;;;;;;;;;;5.05;60.27;97827.63;4990938;28;20080;-71
2023/01/17 12:19:33;;;;;;;;;;;;;;;5.08;60.32;97817.03;5009426;28;19987;-71
2023/01/17 12:22:52;;;;;;;;;;;;;;;5.24;58.53;97812.38;5004419;28;19921;-71
2023/01/17 12:25:54;;;;;;;;;;;;;;;5.21;60.57;97804.84;4990477;28;20401;-72
2023/01/17 12:29:16;;;;;;;;;;;;;;;5.06;61.89;97803.38;4990622;28;20020;-72
2023/01/17 12:32:30;;;;;;;;;;;;;;;5.13;61.53;97794.19;4990736;28;19975;-72
2023/01/17 12:35:52;;;;;;;;;;;;;;;5.14;60.85;97788.09;4991037;28;20035;-72
2023/01/17 12:38:55;;;;;;;;;;;;;;;5.04;62.49;97793.13;4989749;28;20409;-73
2023/01/17 12:42:06;;;;;;;;;;;;;;;5.00;62.95;97793.44;4990084;28;20080;-71
2023/01/17 12:45:16;;;;;;;;;;;;;;;5.08;62.05;97794.56;4989776;28;19935;-72
2023/01/17 12:48:20;;;;;;;;;;;;;;;5.06;61.79;97787.81;4989744;28;20564;-71
2023/01/17 12:51:27;;;;;;;;;;;;;;;5.30;61.59;97780.03;4977928;28;19924;-72
2023/01/17 12:54:37;;;;;;;;;;;;;;;5.36;60.65;97780.38;4990016;28;19925;-71
2023/01/17 12:57:44;;;;;;;;;;;;;;;5.24;59.63;97783.88;4989226;28;19924;-71
2023/01/17 13:00:50;;;;;;;;;;;;;;;5.50;58.71;97781.13;4982532;28;19955;-71
2023/01/17 13:04:12;;;;;;;;;;;;;;;5.61;58.22;97768.16;4990473;28;19920;-72
2023/01/17 13:07:38;;;;;;;;;;;;;;;5.53;58.41;97780.88;4987796;28;19944;-71
2023/01/17 13:10:50;;;;;;;;;;;;;;;5.62;58.37;97775.00;4988770;28;20141;-71
2023/01/17 13:13:56;;;;;;;;;;;;;;;5.60;58.19;97767.34;4988888;28;20020;-71
2023/01/17 13:17:20;;;;;;;;;;;;;;;5.64;58.64;97774.88;4988541;28;19968;-70
2023/01/17 13:20:30;;;;;;;;;;;;;;;5.71;58.71;97774.31;4974592;28;19921;-70
2023/01/17 13:23:42;;;;;;;;;;;;;;;5.70;58.42;97772.63;4989315;28;19924;-70
2023/01/17 13:26:55;;;;;;;;;;;;;;;5.79;59.31;97778.91;4979963;28;19924;-71
2023/01/17 13:34:17;;;;;;;;;;;;;;;5.65;59.37;97769.59;5008800;28;19959;-70
2023/01/17 13:37:40;;;;;;;;;;;;;;;5.61;59.57;97768.16;5008068;28;20068;-71
2023/01/17 13:40:43;;;;;;;;;;;;;;;5.62;58.41;97759.47;4999353;28;19920;-72
2023/01/17 13:44:20;;;;;;;;;;;;;;;5.80;57.88;97762.38;4989602;28;19975;-71
2023/01/17 13:47:10;;;;;;;;;;;;;;;5.90;55.13;97765.09;4988608;28;19917;-71
2023/01/17 13:50:32;;;;;;;;;;;;;;;5.72;57.56;97768.19;4994384;28;19925;-72
2023/01/17 13:53:38;;;;;;;;;;;;;;;5.73;57.90;97762.03;4988940;28;19927;-71
2023/01/17 13:56:41;;;;;;;;;;;;;;;5.88;56.79;97765.22;4988745;28;20378;-73
2023/01/17 13:59:44;;;;;;;;;;;;;;;5.92;55.98;97765.81;4976361;28;19968;-71
2023/01/17 14:02:48;;;;;;;;;;;;;;;5.81;56.88;97754.50;4988872;28;19968;-73
2023/01/17 14:05:55;;;;;;;;;;;;;;;5.80;55.61;97760.63;4989489;28;19960;-69
2023/01/17 14:09:11;;;;;;;;;;;;;;;5.74;55.79;97758.53;4969905;28;19920;-70
2023/01/17 14:12:18;;;;;;;;;;;;;;;5.77;55.31;97754.84;4974356;28;19971;-70
2023/01/17 14:15:24;;;;;;;;;;;;;;;5.80;56.90;97765.81;4989176;28;20362;-70
2023/01/17 14:18:33;;;;;;;;;;;;;;;5.73;58.44;97769.81;4977525;28;19919;-74
2023/01/17 14:21:36;;;;;;;;;;;;;;;5.83;56.69;97760.38;4987481;28;20445;-70
2023/01/17 14:24:58;;;;;;;;;;;;;;;5.95;57.76;97766.44;4988778;28;19976;-71
2023/01/17 14:28:19;;;;;;;;;;;;;;;5.75;58.55;97770.53;4987479;28;19920;-70
2023/01/17 14:31:24;;;;;;;;;;;;;;;5.76;57.63;97776.53;4992793;28;19920;-70
2023/01/17 14:34:29;;;;;;;;;;;;;;;5.74;56.59;97781.00;4987367;28;20406;-70
2023/01/17 14:37:45;;;;;;;;;;;;;;;5.71;54.93;97778.66;4989619;28;19965;-70
2023/01/17 14:40:54;;;;;;;;;;;;;;;5.82;56.50;97782.06;4993297;28;19944;-70
2023/01/17 14:43:59;;;;;;;;;;;;;;;5.58;58.53;97776.16;5009053;28;19920;-70
2023/01/17 14:47:02;;;;;;;;;;;;;;;5.70;58.45;97767.44;5008947;28;20337;-70
2023/01/17 14:50:22;;;;;;;;;;;;;;;5.80;58.22;97763.22;5008753;28;19940;-70
2023/01/17 14:53:30;;;;;;;;;;;;;;;5.68;57.62;97764.19;5009513;28;19920;-70
2023/01/17 14:56:33;;;;;;;;;;;;;;;5.59;58.49;97759.69;4656850;28;10000301;-70
2023/01/17 14:59:37;;;;;;;;;;;;;;;5.64;58.69;97770.50;4989062;28;19960;-71
2023/01/17 15:02:42;;;;;;;;;;;;;;;5.61;58.87;97762.97;4989031;28;19971;-72
2023/01/17 15:05:48;;;;;;;;;;;;;;;5.39;59.89;97768.94;4988845;28;19921;-70
2023/01/17 15:08:52;;;;;;;;;;;;;;;5.41;59.78;97761.06;4992934;28;19968;-70
2023/01/17 15:11:58;;;;;;;;;;;;;;;5.47;60.10;97761.44;4993015;28;20005;-68
2023/01/17 15:15:02;;;;;;;;;;;;;;;5.42;59.88;97770.50;4992820;28;20470;-67
2023/01/17 15:18:16;;;;;;;;;;;;;;;5.33;59.77;97769.44;4980778;28;19921;-70
2023/01/17 15:21:21;;;;;;;;;;;;;;;5.17;60.51;97767.16;4992549;28;20017;-70
2023/01/17 15:24:26;;;;;;;;;;;;;;;5.13;60.75;97776.88;4980546;28;19925;-70
2023/01/17 15:27:30;;;;;;;;;;;;;;;5.10;60.89;97774.53;4992767;28;19960;-70
2023/01/17 15:30:33;;;;;;;;;;;;;;;4.89;60.98;97770.94;4992614;28;19922;-70
2023/01/17 15:33:38;;;;;;;;;;;;;;;4.74;61.43;97778.06;4992426;28;19924;-70
2023/01/17 15:36:56;;;;;;;;;;;;;;;5.11;61.05;97780.56;4992655;28;20291;-70
2023/01/17 15:40:04;;;;;;;;;;;;;;;4.90;61.60;97783.75;4992564;28;19941;-70
2023/01/17 15:43:18;;;;;;;;;;;;;;;4.83;61.16;97787.75;4992582;28;20382;-70
2023/01/17 15:46:24;;;;;;;;;;;;;;;4.77;61.09;97787.38;4996129;28;20342;-71
2023/01/17 15:49:28;;;;;;;;;;;;;;;4.44;61.20;97799.19;4995777;28;19924;-70
2023/01/17 15:52:32;;;;;;;;;;;;;;;4.65;61.25;97802.00;4995930;28;19977;-70
2023/01/17 15:55:36;;;;;;;;;;;;;;;4.55;60.81;97798.44;4995075;28;19972;-72
2023/01/17 15:58:39;;;;;;;;;;;;;;;4.72;60.51;97805.78;4996054;28;19951;-71
2023/01/17 16:01:51;;;;;;;;;;;;;;;4.75;60.56;97805.56;4995872;28;19968;-71
2023/01/17 16:04:54;;;;;;;;;;;;;;;4.93;59.70;97787.91;4996017;28;20342;-71
2023/01/17 16:08:01;;;;;;;;;;;;;;;4.79;60.20;97801.84;4995713;28;20061;-71
2023/01/17 16:11:05;;;;;;;;;;;;;;;4.58;61.26;97799.03;4995864;28;19924;-71
2023/01/17 16:14:09;;;;;;;;;;;;;;;4.77;60.92;97808.06;4995275;28;20100;-69
2023/01/17 16:17:16;;;;;;;;;;;;;;;4.82;59.34;97800.81;4995627;28;19959;-70
2023/01/17 16:20:40;;;;;;;;;;;;;;;4.64;60.42;97808.13;4995708;28;19972;-70
2023/01/17 16:23:44;;;;;;;;;;;;;;;4.66;60.96;97803.69;4995534;28;19924;-70
2023/01/17 16:26:47;;;;;;;;;;;;;;;4.71;59.69;97804.16;4995607;28;19968;-70
2023/01/17 16:29:52;;;;;;;;;;;;;;;4.62;59.13;97799.63;4994857;28;19920;-71
2023/01/17 16:32:57;;;;;;;;;;;;;;;4.25;61.01;97806.59;4994203;28;19920;-70
2023/01/17 16:36:01;;;;;;;;;;;;;;;4.30;61.67;97804.50;4995033;28;20020;-71
2023/01/17 16:39:06;;;;;;;;;;;;;;;4.49;60.12;97802.28;4992809;28;19948;-70
2023/01/17 16:42:10;;;;;;;;;;;;;;;4.52;59.29;97811.59;4995549;28;20290;-68
2023/01/17 16:45:13;;;;;;;;;;;;;;;4.42;59.10;97814.81;5003741;28;19920;-73
2023/01/17 16:48:17;;;;;;;;;;;;;;;4.27;60.96;97817.66;5014337;28;19936;-71
2023/01/17 16:51:21;;;;;;;;;;;;;;;4.32;60.49;97824.16;5012515;28;19928;-71
2023/01/17 16:54:25;;;;;;;;;;;;;;;4.39;60.18;97825.38;5013442;28;19924;-71
2023/01/17 16:57:28;;;;;;;;;;;;;;;4.51;59.29;97831.47;5012734;28;19920;-71
2023/01/17 17:00:31;;;;;;;;;;;;;;;4.53;58.54;97836.50;5014680;28;19919;-72
2023/01/17 17:03:34;;;;;;;;;;;;;;;4.60;58.69;97848.09;5015093;28;19921;-71
2023/01/17 17:06:38;;;;;;;;;;;;;;;4.41;59.75;97849.41;5015017;28;19920;-72
2023/01/17 17:09:41;;;;;;;;;;;;;;;4.47;59.45;97834.34;5014313;28;20286;-73
2023/01/17 17:12:45;;;;;;;;;;;;;;;4.29;60.83;97839.91;5015127;28;19936;-73
2023/01/17 17:15:50;;;;;;;;;;;;;;;4.40;60.34;97836.53;5014847;28;19964;-74
2023/01/17 17:18:54;;;;;;;;;;;;;;;4.41;60.78;97833.03;5014760;28;19920;-74
2023/01/17 17:22:00;;;;;;;;;;;;;;;4.51;59.36;97841.00;5014940;28;19920;-73
2023/01/17 17:25:06;;;;;;;;;;;;;;;4.59;59.59;97846.44;5014444;28;19998;-72
2023/01/17 17:28:09;;;;;;;;;;;;;;;4.23;60.75;97840.31;5002276;28;20421;-72
2023/01/17 17:31:12;;;;;;;;;;;;;;;4.34;60.41;97853.34;5014532;28;20428;-72
2023/01/17 17:34:15;;;;;;;;;;;;;;;4.42;60.15;97856.22;5002478;28;19982;-73
2023/01/17 17:37:20;;;;;;;;;;;;;;;4.48;59.47;97854.13;5014678;28;19967;-71
2023/01/17 17:40:25;;;;;;;;;;;;;;;4.43;58.80;97852.72;5014684;28;20096;-75
2023/01/17 17:43:28;;;;;;;;;;;;;;;4.31;59.29;97853.56;5014535;28;19955;-75
2023/01/17 17:46:32;;;;;;;;;;;;;;;4.34;59.58;97853.34;5014615;28;19967;-74
2023/01/17 17:49:35;;;;;;;;;;;;;;;4.32;59.01;97850.03;5013968;28;20282;-74
2023/01/17 17:52:39;;;;;;;;;;;;;;;4.30;58.69;97859.66;5014109;28;19921;-74
2023/01/17 17:55:43;;;;;;;;;;;;;;;4.41;58.92;97858.91;4991022;28;19988;-74
2023/01/17 17:58:46;;;;;;;;;;;;;;;4.37;58.96;97855.72;4986861;28;19920;-74
2023/01/17 18:01:49;;;;;;;;;;;;;;;4.19;59.90;97862.16;4978624;28;20375;-75
2023/01/17 18:04:52;;;;;;;;;;;;;;;4.28;59.37;97863.28;4984237;28;19967;-74
2023/01/17 18:07:56;;;;;;;;;;;;;;;4.17;59.87;97869.19;4980680;28;19921;-75